sensor_id;sensor_type;location;lat;lon;timestamp;pressure;altitude;pressure_sealevel;temperature;humidity
58690;BME280;44470;53.206;-6.106;2023-03-19T17:26:55;101336.59;;;19.25;56.72
58690;BME280;44470;53.206;-6.106;2023-03-19T17:29:21;101344.63;;;19.17;57.32
58690;BME280;44470;53.206;-6.106;2023-03-19T17:31:49;101351.75;;;19.20;57.06
58690;BME280;44470;53.206;-6.106;2023-03-19T17:34:17;101344.63;;;19.22;56.71
58690;BME280;44470;53.206;-6.106;2023-03-19T17:36:47;101331.28;;;19.22;56.75
58690;BME280;44470;53.206;-6.106;2023-03-19T17:39:14;101328.59;;;19.22;56.80
58690;BME280;44470;53.206;-6.106;2023-03-19T17:41:39;101338.34;;;19.28;56.72
58690;BME280;44470;53.206;-6.106;2023-03-19T17:44:05;101334.78;;;19.30;56.99
58690;BME280;44470;53.206;-6.106;2023-03-19T17:46:33;101322.28;;;19.31;56.53
58690;BME280;44470;53.206;-6.106;2023-03-19T17:49:00;101317.84;;;19.35;56.74
58690;BME280;44470;53.206;-6.106;2023-03-19T17:51:26;101316.94;;;19.37;56.84
58690;BME280;44470;53.206;-6.106;2023-03-19T17:53:53;101315.94;;;19.51;57.34
58690;BME280;44470;53.206;-6.106;2023-03-19T17:56:22;101295.13;;;19.84;56.71
58690;BME280;44470;53.206;-6.106;2023-03-19T17:58:49;101309.56;;;19.66;56.80
58690;BME280;44470;53.206;-6.106;2023-03-19T18:01:26;101301.63;;;19.56;56.94
58690;BME280;44470;53.206;-6.106;2023-03-19T18:03:54;101294.59;;;19.48;56.78
58690;BME280;44470;53.206;-6.106;2023-03-19T18:06:23;101290.38;;;19.19;53.38
58690;BME280;44470;53.206;-6.106;2023-03-19T18:08:50;101287.75;;;19.17;55.77
58690;BME280;44470;53.206;-6.106;2023-03-19T18:11:15;101286.78;;;19.24;56.04
58690;BME280;44470;53.206;-6.106;2023-03-19T18:13:41;101291.16;;;19.31;56.62
58690;BME280;44470;53.206;-6.106;2023-03-19T18:16:28;101288.50;;;19.31;56.78
58690;BME280;44470;53.206;-6.106;2023-03-19T18:18:57;101289.41;;;19.30;57.29
58690;BME280;44470;53.206;-6.106;2023-03-19T18:21:23;101276.94;;;19.33;57.46
58690;BME280;44470;53.206;-6.106;2023-03-19T18:23:49;101280.47;;;19.35;57.73
58690;BME280;44470;53.206;-6.106;2023-03-19T18:26:15;101282.22;;;19.40;58.35
58690;BME280;44470;53.206;-6.106;2023-03-19T18:28:41;101282.22;;;19.39;58.82
58690;BME280;44470;53.206;-6.106;2023-03-19T18:31:20;101270.66;;;19.38;58.56
58690;BME280;44470;53.206;-6.106;2023-03-19T18:33:56;101279.53;;;19.40;58.59
58690;BME280;44470;53.206;-6.106;2023-03-19T18:36:24;101271.50;;;19.43;59.63
58690;BME280;44470;53.206;-6.106;2023-03-19T18:38:52;101269.72;;;19.42;58.96
58690;BME280;44470;53.206;-6.106;2023-03-19T18:41:20;101284.84;;;19.42;58.89
58690;BME280;44470;53.206;-6.106;2023-03-19T18:44:02;101268.84;;;19.39;58.38
58690;BME280;44470;53.206;-6.106;2023-03-19T18:46:30;101279.53;;;19.40;58.60
58690;BME280;44470;53.206;-6.106;2023-03-19T18:48:59;101277.75;;;19.42;58.35
58690;BME280;44470;53.206;-6.106;2023-03-19T18:51:26;101259.06;;;19.41;58.64
58690;BME280;44470;53.206;-6.106;2023-03-19T18:53:53;101273.31;;;19.41;58.97
58690;BME280;44470;53.206;-6.106;2023-03-19T18:56:25;101267.09;;;19.39;58.95
58690;BME280;44470;53.206;-6.106;2023-03-19T18:58:59;101278.56;;;19.46;59.60
58690;BME280;44470;53.206;-6.106;2023-03-19T19:01:27;101283.03;;;19.44;58.97
58690;BME280;44470;53.206;-6.106;2023-03-19T19:03:53;101290.19;;;19.43;58.08
58690;BME280;44470;53.206;-6.106;2023-03-19T19:06:21;101285.75;;;19.41;58.63
58690;BME280;44470;53.206;-6.106;2023-03-19T19:08:47;101271.53;;;19.39;58.61
58690;BME280;44470;53.206;-6.106;2023-03-19T19:11:14;101277.78;;;19.38;58.57
58690;BME280;44470;53.206;-6.106;2023-03-19T19:13:41;101269.09;;;19.14;54.73
58690;BME280;44470;53.206;-6.106;2023-03-19T19:16:33;101268.28;;;18.99;56.12
58690;BME280;44470;53.206;-6.106;2023-03-19T19:19:03;101278.88;;;19.12;56.66
58690;BME280;44470;53.206;-6.106;2023-03-19T19:21:29;101270.84;;;19.18;57.10
58690;BME280;44470;53.206;-6.106;2023-03-19T19:23:54;101272.56;;;19.22;57.12
58690;BME280;44470;53.206;-6.106;2023-03-19T19:26:23;101271.63;;;19.25;57.35
58690;BME280;44470;53.206;-6.106;2023-03-19T19:28:50;101258.31;;;19.25;57.47
58690;BME280;44470;53.206;-6.106;2023-03-19T19:31:22;101260.97;;;19.26;57.09
58690;BME280;44470;53.206;-6.106;2023-03-19T19:33:48;101251.16;;;19.28;57.07
58690;BME280;44470;53.206;-6.106;2023-03-19T19:36:14;101238.69;;;19.30;57.40
58690;BME280;44470;53.206;-6.106;2023-03-19T19:38:40;101237.81;;;19.28;57.05
58690;BME280;44470;53.206;-6.106;2023-03-19T19:41:14;101244.03;;;19.30;57.83
58690;BME280;44470;53.206;-6.106;2023-03-19T19:43:42;101241.31;;;19.32;58.19
58690;BME280;44470;53.206;-6.106;2023-03-19T19:46:11;101237.78;;;19.31;58.02
58690;BME280;44470;53.206;-6.106;2023-03-19T19:48:37;101236.91;;;19.29;58.04
58690;BME280;44470;53.206;-6.106;2023-03-19T19:51:04;101237.78;;;19.30;58.25
58690;BME280;44470;53.206;-6.106;2023-03-19T19:53:32;101235.13;;;19.30;58.33
58690;BME280;44470;53.206;-6.106;2023-03-19T19:55:59;101222.69;;;19.29;58.34
58690;BME280;44470;53.206;-6.106;2023-03-19T19:58:30;101219.09;;;19.30;58.26
58690;BME280;44470;53.206;-6.106;2023-03-19T20:00:57;101218.25;;;19.29;58.06
58690;BME280;44470;53.206;-6.106;2023-03-19T20:03:25;101211.13;;;19.28;58.00
58690;BME280;44470;53.206;-6.106;2023-03-19T20:05:56;101218.25;;;19.29;57.95
58690;BME280;44470;53.206;-6.106;2023-03-19T20:08:21;101215.56;;;19.28;58.03
58690;BME280;44470;53.206;-6.106;2023-03-19T20:10:47;101214.69;;;19.27;58.14
58690;BME280;44470;53.206;-6.106;2023-03-19T20:13:29;101217.38;;;19.27;57.94
58690;BME280;44470;53.206;-6.106;2023-03-19T20:16:00;101226.25;;;19.28;58.25
58690;BME280;44470;53.206;-6.106;2023-03-19T20:18:27;101225.38;;;19.27;58.22
58690;BME280;44470;53.206;-6.106;2023-03-19T20:20:57;101235.16;;;19.28;58.14
58690;BME280;44470;53.206;-6.106;2023-03-19T20:23:24;101226.25;;;19.28;58.17
58690;BME280;44470;53.206;-6.106;2023-03-19T20:25:50;101220.94;;;19.26;57.98
58690;BME280;44470;53.206;-6.106;2023-03-19T20:28:21;101234.28;;;19.26;57.96
58690;BME280;44470;53.206;-6.106;2023-03-19T20:30:49;101223.59;;;19.26;57.99
58690;BME280;44470;53.206;-6.106;2023-03-19T20:33:15;101225.38;;;19.27;57.92
58690;BME280;44470;53.206;-6.106;2023-03-19T20:35:42;101224.50;;;19.25;57.85
58690;BME280;44470;53.206;-6.106;2023-03-19T20:38:09;101215.59;;;19.26;57.94
58690;BME280;44470;53.206;-6.106;2023-03-19T20:40:39;101205.81;;;19.25;57.99
58690;BME280;44470;53.206;-6.106;2023-03-19T20:45:51;101204.06;;;19.24;57.85
58690;BME280;44470;53.206;-6.106;2023-03-19T20:48:17;101198.72;;;19.24;57.80
58690;BME280;44470;53.206;-6.106;2023-03-19T20:50:43;101207.59;;;19.25;57.85
58690;BME280;44470;53.206;-6.106;2023-03-19T20:53:09;101200.50;;;19.25;57.91
58690;BME280;44470;53.206;-6.106;2023-03-19T20:55:39;101210.25;;;19.25;57.75
58690;BME280;44470;53.206;-6.106;2023-03-19T20:58:36;101206.72;;;19.24;57.81
58690;BME280;44470;53.206;-6.106;2023-03-19T21:01:01;101205.81;;;19.25;57.85
58690;BME280;44470;53.206;-6.106;2023-03-19T21:03:29;101202.28;;;19.23;57.73
58690;BME280;44470;53.206;-6.106;2023-03-19T21:06:01;101207.63;;;19.23;57.48
58690;BME280;44470;53.206;-6.106;2023-03-19T21:08:33;101194.28;;;19.23;57.55
58690;BME280;44470;53.206;-6.106;2023-03-19T21:11:00;101190.72;;;19.23;57.82
58690;BME280;44470;53.206;-6.106;2023-03-19T21:13:26;101195.19;;;19.22;57.44
58690;BME280;44470;53.206;-6.106;2023-03-19T21:15:52;101187.19;;;19.22;57.65
58690;BME280;44470;53.206;-6.106;2023-03-19T21:18:19;101190.72;;;19.24;57.54
58690;BME280;44470;53.206;-6.106;2023-03-19T21:20:47;101184.50;;;19.22;57.43
58690;BME280;44470;53.206;-6.106;2023-03-19T21:23:20;101186.28;;;19.23;57.56
58690;BME280;44470;53.206;-6.106;2023-03-19T21:25:48;101186.28;;;19.23;57.59
58690;BME280;44470;53.206;-6.106;2023-03-19T21:28:33;101185.38;;;19.23;57.53
58690;BME280;44470;53.206;-6.106;2023-03-19T21:30:59;101178.28;;;19.22;57.44
58690;BME280;44470;53.206;-6.106;2023-03-19T21:33:31;101184.50;;;19.22;57.53
58690;BME280;44470;53.206;-6.106;2023-03-19T21:35:58;101168.50;;;19.22;57.32
58690;BME280;44470;53.206;-6.106;2023-03-19T21:38:24;101162.25;;;19.22;57.39
58690;BME280;44470;53.206;-6.106;2023-03-19T21:40:54;101165.84;;;19.22;57.41
58690;BME280;44470;53.206;-6.106;2023-03-19T21:43:20;101164.94;;;19.23;57.29
58690;BME280;44470;53.206;-6.106;2023-03-19T21:45:50;101153.38;;;19.21;57.53
58690;BME280;44470;53.206;-6.106;2023-03-19T21:48:29;101155.16;;;19.22;57.51
58690;BME280;44470;53.206;-6.106;2023-03-19T21:50:55;101150.72;;;19.21;57.52
58690;BME280;44470;53.206;-6.106;2023-03-19T21:53:21;101148.91;;;19.22;57.59
58690;BME280;44470;53.206;-6.106;2023-03-19T21:55:48;101150.72;;;19.21;57.60
58690;BME280;44470;53.206;-6.106;2023-03-19T21:58:17;101155.16;;;19.22;57.60
58690;BME280;44470;53.206;-6.106;2023-03-19T22:00:43;101151.63;;;19.20;57.54
58690;BME280;44470;53.206;-6.106;2023-03-19T22:03:17;101148.06;;;19.21;57.59
58690;BME280;44470;53.206;-6.106;2023-03-19T22:05:44;101158.72;;;19.21;57.61
58690;BME280;44470;53.206;-6.106;2023-03-19T22:08:10;101141.84;;;19.19;57.59
58690;BME280;44470;53.206;-6.106;2023-03-19T22:10:36;101151.63;;;19.20;57.46
58690;BME280;44470;53.206;-6.106;2023-03-19T22:13:02;101143.63;;;19.20;57.54
58690;BME280;44470;53.206;-6.106;2023-03-19T22:15:36;101134.72;;;19.20;57.38
58690;BME280;44470;53.206;-6.106;2023-03-19T22:18:08;101138.28;;;19.20;57.53
58690;BME280;44470;53.206;-6.106;2023-03-19T22:20:36;101116.94;;;19.20;57.65
58690;BME280;44470;53.206;-6.106;2023-03-19T22:23:02;101126.69;;;19.21;57.46
58690;BME280;44470;53.206;-6.106;2023-03-19T22:25:31;101116.94;;;19.20;57.53
58690;BME280;44470;53.206;-6.106;2023-03-19T22:27:57;101128.47;;;19.21;57.52
58690;BME280;44470;53.206;-6.106;2023-03-19T22:32:55;101122.28;;;19.20;57.71
58690;BME280;44470;53.206;-6.106;2023-03-19T22:35:21;101120.50;;;19.19;57.78
58690;BME280;44470;53.206;-6.106;2023-03-19T22:37:47;101116.94;;;19.19;57.78
58690;BME280;44470;53.206;-6.106;2023-03-19T22:40:15;101117.84;;;19.19;57.65
58690;BME280;44470;53.206;-6.106;2023-03-19T22:42:43;101117.84;;;19.19;57.68
58690;BME280;44470;53.206;-6.106;2023-03-19T22:45:24;101121.38;;;19.20;57.80
58690;BME280;44470;53.206;-6.106;2023-03-19T22:47:50;101109.84;;;19.17;57.93
58690;BME280;44470;53.206;-6.106;2023-03-19T22:50:22;101113.41;;;19.18;57.81
58690;BME280;44470;53.206;-6.106;2023-03-19T22:52:49;101114.25;;;19.19;57.88
58690;BME280;44470;53.206;-6.106;2023-03-19T22:55:15;101110.69;;;19.20;57.99
58690;BME280;44470;53.206;-6.106;2023-03-19T22:57:40;101109.81;;;19.19;58.03
58690;BME280;44470;53.206;-6.106;2023-03-19T23:00:26;101115.16;;;19.19;57.91
58690;BME280;44470;53.206;-6.106;2023-03-19T23:02:55;101124.94;;;19.19;57.68
58690;BME280;44470;53.206;-6.106;2023-03-19T23:05:36;101124.94;;;19.19;57.85
58690;BME280;44470;53.206;-6.106;2023-03-19T23:08:02;101117.84;;;19.17;57.79
58690;BME280;44470;53.206;-6.106;2023-03-19T23:10:30;101121.41;;;19.18;57.52
58690;BME280;44470;53.206;-6.106;2023-03-19T23:12:57;101119.59;;;19.19;57.92
58690;BME280;44470;53.206;-6.106;2023-03-19T23:15:24;101118.72;;;19.18;57.75
58690;BME280;44470;53.206;-6.106;2023-03-19T23:17:54;101123.16;;;19.19;57.63
58690;BME280;44470;53.206;-6.106;2023-03-19T23:20:22;101116.94;;;19.20;57.82
58690;BME280;44470;53.206;-6.106;2023-03-19T23:22:48;101110.69;;;19.20;57.82
58690;BME280;44470;53.206;-6.106;2023-03-19T23:25:19;101116.03;;;19.20;57.59
58690;BME280;44470;53.206;-6.106;2023-03-19T23:27:45;101111.59;;;19.20;57.92
58690;BME280;44470;53.206;-6.106;2023-03-19T23:30:23;101101.81;;;19.19;58.18
58690;BME280;44470;53.206;-6.106;2023-03-19T23:32:53;101102.69;;;19.21;58.09
58690;BME280;44470;53.206;-6.106;2023-03-19T23:35:23;101105.34;;;19.21;58.12
58690;BME280;44470;53.206;-6.106;2023-03-19T23:37:50;101109.78;;;19.22;58.42
58690;BME280;44470;53.206;-6.106;2023-03-19T23:40:16;101109.78;;;19.22;58.62
58690;BME280;44470;53.206;-6.106;2023-03-19T23:42:48;101105.31;;;19.23;58.52
58690;BME280;44470;53.206;-6.106;2023-03-19T23:45:43;101113.38;;;19.21;58.46
58690;BME280;44470;53.206;-6.106;2023-03-19T23:48:15;101107.13;;;19.21;58.73
58690;BME280;44470;53.206;-6.106;2023-03-19T23:50:41;101113.38;;;19.21;58.53
58690;BME280;44470;53.206;-6.106;2023-03-19T23:53:22;101112.47;;;19.21;58.33
58690;BME280;44470;53.206;-6.106;2023-03-19T23:55:50;101113.38;;;19.21;58.16
58690;BME280;44470;53.206;-6.106;2023-03-19T23:58:17;101109.81;;;19.19;58.30
